EDNY

Friedrichshafen Airport

Friedrichshafen, Germany
METAR EDNY 210350Z VRB03KT CAVOK 16/14 Q1020
Observed Flight Rules
Aug-21 @ 03:50 UTC (20 minutes ago) Visual Flight Rules
Wind Visibility Clouds
Variable at 3 knots 10,000+ meters
  • Clear skies
Temperatures Readings
Current 16°C / 61°F
Dewpoint 14°C / 57°F
Humidity 88%
Altimeter 30.12" Hg
Pressure 1020 hPa
Elevation 424
METAR EDNY 210350Z VRB03KT CAVOK 16/14 Q1020
Observed Flight Rules
Aug-21 @ 03:50 UTC
(20 minutes ago)
VFR
Wind Visibility
Variable at 3 knots 10,000+ meters
Clouds
  • Clear skies
Temperature Dewpoint
16°C / 61°F 14°C / 57°F
Humidity Altimeter Pressure
88% 30.12" Hg 1020 hPa